Terminal Aerodrome Forecast
Issued by NWS

Home | Current Version | Previous Version | Text Only | Print | Product List | Glossary On
Versions: 1 2 3 4 5 6 7 8 9 10 11 12 13 14
000
FTUS45 KVEF 031120
TAFVGT
TAF
KVGT 031120Z 0312/0412 20003KT P6SM BKN250
     FM031500 16006KT P6SM SCT250
     FM031800 18010KT P6SM FEW250
     FM032000 19014G20KT P6SM FEW250
     FM040400 20009KT P6SM SKC=

USA.gov is the U.S. government's official web portal to all federal, state and local government web resources and services.